Time;durP1;ratioP1;P1;durP2;ratioP2;P2;SDS_P1;SDS_P2;PMS_P1;PMS_P2;Temp;Humidity;BMP_temperature;BMP_pressure;BME280_temperature;BME280_humidity;BME280_pressure;Samples;Min_cycle;Max_cycle;Signal;HPM_P1;HPM_P2
2023/10/10 00:02:18;;;;;;;14.25;10.18;;;;;;;;;;5074634;28;20048;-58
2023/10/10 00:04:47;;;;;;;13.52;10.18;;;;;;;;;;5086150;28;20032;-59
2023/10/10 00:07:14;;;;;;;16.38;10.30;;;;;;;;;;5090122;28;20043;-59
2023/10/10 00:09:44;;;;;;;17.33;11.18;;;;;;;;;;5081693;28;20385;-58
2023/10/10 00:12:29;;;;;;;18.02;10.60;;;;;;;;;;5074454;28;20046;-58
2023/10/10 00:14:58;;;;;;;18.52;10.75;;;;;;;;;;5085171;28;20205;-58
2023/10/10 00:17:34;;;;;;;15.40;10.43;;;;;;;;;;5084201;28;20044;-59
2023/10/10 00:20:15;;;;;;;20.08;10.93;;;;;;;;;;5077198;28;20464;-58
2023/10/10 00:22:43;;;;;;;16.85;10.27;;;;;;;;;;5089024;28;20101;-58
2023/10/10 00:25:12;;;;;;;22.20;11.65;;;;;;;;;;5087988;28;20095;-58
2023/10/10 00:27:48;;;;;;;16.58;11.35;;;;;;;;;;5086282;28;20052;-58
2023/10/10 00:30:14;;;;;;;16.15;11.23;;;;;;;;;;5085595;28;20056;-58
2023/10/10 00:32:43;;;;;;;17.05;11.43;;;;;;;;;;5080899;28;20056;-59
2023/10/10 00:35:09;;;;;;;20.92;11.85;;;;;;;;;;5079465;28;20056;-58
2023/10/10 00:37:36;;;;;;;14.57;9.65;;;;;;;;;;5077786;28;20066;-58
2023/10/10 00:40:08;;;;;;;14.88;10.20;;;;;;;;;;5077385;28;20756;-58
2023/10/10 00:42:38;;;;;;;18.45;10.63;;;;;;;;;;5077152;28;20036;-58
2023/10/10 00:45:09;;;;;;;17.67;10.57;;;;;;;;;;5078836;28;20048;-59
2023/10/10 00:47:39;;;;;;;14.32;10.63;;;;;;;;;;5076543;28;20051;-58
2023/10/10 00:50:14;;;;;;;15.38;10.30;;;;;;;;;;5081004;28;20071;-58
2023/10/10 00:52:41;;;;;;;17.25;9.95;;;;;;;;;;5074491;28;20052;-58
2023/10/10 00:55:09;;;;;;;16.10;9.60;;;;;;;;;;5083399;28;20115;-58
2023/10/10 00:57:39;;;;;;;14.60;9.70;;;;;;;;;;5080481;28;20463;-58
2023/10/10 01:00:15;;;;;;;13.93;9.70;;;;;;;;;;5067547;28;20049;-58
2023/10/10 01:02:44;;;;;;;14.48;9.77;;;;;;;;;;5076491;28;20039;-58
2023/10/10 01:05:14;;;;;;;14.35;10.45;;;;;;;;;;5067788;28;20044;-59
2023/10/10 01:07:44;;;;;;;16.42;9.63;;;;;;;;;;5082061;28;20063;-58
2023/10/10 01:10:16;;;;;;;12.02;8.93;;;;;;;;;;5065475;28;20056;-58
2023/10/10 01:12:44;;;;;;;17.02;8.85;;;;;;;;;;5081133;28;20511;-58
2023/10/10 01:15:25;;;;;;;11.27;8.82;;;;;;;;;;5070858;28;20090;-58
2023/10/10 01:17:54;;;;;;;15.27;8.60;;;;;;;;;;5083787;28;20048;-58
2023/10/10 01:20:33;;;;;;;14.82;8.63;;;;;;;;;;5075410;28;20048;-58
2023/10/10 01:23:00;;;;;;;13.50;8.30;;;;;;;;;;5084049;28;20040;-58
2023/10/10 01:28:02;;;;;;;16.07;8.27;;;;;;;;;;5070935;28;20052;-58
2023/10/10 01:30:48;;;;;;;14.98;8.10;;;;;;;;;;5074674;28;20385;-58
2023/10/10 01:33:15;;;;;;;15.10;8.85;;;;;;;;;;5072391;28;20127;-59
2023/10/10 01:35:44;;;;;;;11.25;7.63;;;;;;;;;;5076285;28;20052;-58
2023/10/10 01:38:41;;;;;;;15.30;7.25;;;;;;;;;;5071493;28;20084;-58
2023/10/10 01:41:22;;;;;;;13.43;8.10;;;;;;;;;;5057509;28;20057;-58
2023/10/10 01:43:53;;;;;;;10.38;6.78;;;;;;;;;;5063684;28;20041;-58
2023/10/10 01:46:29;;;;;;;11.30;7.68;;;;;;;;;;5075321;28;20147;-58
2023/10/10 01:48:55;;;;;;;11.30;7.00;;;;;;;;;;5077390;28;20036;-58
2023/10/10 01:51:24;;;;;;;12.65;6.63;;;;;;;;;;5077556;28;20105;-58
2023/10/10 01:53:55;;;;;;;9.25;5.75;;;;;;;;;;5078423;28;20139;-58
2023/10/10 01:56:22;;;;;;;9.38;6.38;;;;;;;;;;5060949;28;20051;-58
2023/10/10 01:58:53;;;;;;;11.45;5.78;;;;;;;;;;5081047;28;20395;-58
2023/10/10 02:01:20;;;;;;;7.90;5.47;;;;;;;;;;5065373;28;20041;-58
2023/10/10 02:03:47;;;;;;;14.57;7.18;;;;;;;;;;5082701;28;20344;-58
2023/10/10 02:06:23;;;;;;;10.40;6.18;;;;;;;;;;5076242;28;20139;-58
2023/10/10 02:08:52;;;;;;;9.60;6.43;;;;;;;;;;5081595;28;20044;-58
2023/10/10 02:11:22;;;;;;;13.00;7.22;;;;;;;;;;5075122;28;20119;-58
2023/10/10 02:13:48;;;;;;;14.05;6.93;;;;;;;;;;5072982;28;20121;-58
2023/10/10 02:16:18;;;;;;;8.45;6.22;;;;;;;;;;5075299;28;20338;-58
2023/10/10 02:18:51;;;;;;;13.70;7.63;;;;;;;;;;5072246;28;20037;-58
2023/10/10 02:21:31;;;;;;;13.65;8.23;;;;;;;;;;5076344;28;20118;-59
2023/10/10 02:24:12;;;;;;;16.63;7.88;;;;;;;;;;5077929;28;20400;-58
2023/10/10 02:26:39;;;;;;;17.02;7.95;;;;;;;;;;5070311;28;20056;-59
2023/10/10 02:29:53;;;;;;;20.15;8.23;;;;;;;;;;5079172;28;20052;-58
2023/10/10 02:34:43;;;;;;;13.75;7.80;;;;;;;;;;5066037;28;20061;-58
2023/10/10 02:42:33;;;;;;;9.80;7.18;;;;;;;;;;5071460;28;20072;-58
2023/10/10 02:44:59;;;;;;;14.32;8.68;;;;;;;;;;5070551;28;20044;-59
2023/10/10 02:47:32;;;;;;;18.08;9.10;;;;;;;;;;5076754;28;20036;-59
2023/10/10 02:50:14;;;;;;;21.92;10.07;;;;;;;;;;5069959;28;20045;-59
2023/10/10 02:52:45;;;;;;;16.92;10.13;;;;;;;;;;5075711;28;20442;-58
2023/10/10 02:55:16;;;;;;;17.20;9.65;;;;;;;;;;5069147;28;20041;-58
2023/10/10 02:57:42;;;;;;;16.42;9.90;;;;;;;;;;5070514;28;20450;-59
2023/10/10 03:02:53;;;;;;;16.73;9.90;;;;;;;;;;5068629;28;20048;-58
2023/10/10 03:05:39;;;;;;;23.08;10.93;;;;;;;;;;5076112;28;20263;-58
2023/10/10 03:08:13;;;;;;;18.48;10.63;;;;;;;;;;5067422;28;20120;-59
2023/10/10 03:10:45;;;;;;;17.15;10.18;;;;;;;;;;5070816;28;20100;-59
2023/10/10 03:13:28;;;;;;;16.08;10.73;;;;;;;;;;5069346;28;20141;-58
2023/10/10 03:16:59;;;;;;;19.00;11.07;;;;;;;;;;5066650;28;20040;-58
2023/10/10 03:27:01;;;;;;;21.55;11.32;;;;;;;;;;5058008;28;20052;-59
2023/10/10 03:29:37;;;;;;;;;;;;;;;;;;5072074;28;20052;-58
2023/10/10 03:34:57;;;;;;;21.30;12.65;;;;;;;;;;5070008;28;20048;-58
2023/10/10 03:40:09;;;;;;;24.15;11.85;;;;;;;;;;5071365;28;20083;-58
2023/10/10 05:24:56;;;;;;;81.07;29.98;;;;;;;;;;5059683;28;20045;-58
2023/10/10 05:27:29;;;;;;;78.60;29.30;;;;;;;;;;5064706;28;20127;-58
2023/10/10 05:29:56;;;;;;;79.55;30.58;;;;;;;;;;5071326;28;20057;-58
2023/10/10 05:32:22;;;;;;;84.68;30.05;;;;;;;;;;5072063;28;20041;-58
2023/10/10 05:34:52;;;;;;;83.47;31.92;;;;;;;;;;5069829;28;20051;-58
2023/10/10 05:37:18;;;;;;;83.47;31.27;;;;;;;;;;5063712;28;20044;-58
2023/10/10 05:39:46;;;;;;;93.15;32.40;;;;;;;;;;5065527;28;20136;-58
2023/10/10 05:42:20;;;;;;;100.32;32.40;;;;;;;;;;5062479;28;20041;-58
2023/10/10 05:44:49;;;;;;;96.85;33.70;;;;;;;;;;5062910;28;20120;-58
2023/10/10 05:47:16;;;;;;;88.63;31.70;;;;;;;;;;5062132;28;20060;-58
2023/10/10 05:49:42;;;;;;;103.10;34.97;;;;;;;;;;5061429;28;20052;-58
2023/10/10 05:52:08;;;;;;;98.15;35.60;;;;;;;;;;5062070;28;20578;-58
2023/10/10 05:54:35;;;;;;;100.70;34.28;;;;;;;;;;5061533;28;20045;-58
2023/10/10 05:57:02;;;;;;;100.60;36.08;;;;;;;;;;5064064;28;20055;-58
2023/10/10 05:59:28;;;;;;;101.00;34.03;;;;;;;;;;5064118;28;20043;-58
2023/10/10 06:01:55;;;;;;;93.10;33.42;;;;;;;;;;5064259;28;20052;-58
2023/10/10 06:04:21;;;;;;;96.65;33.40;;;;;;;;;;5064539;28;20040;-58
2023/10/10 06:06:48;;;;;;;93.18;33.78;;;;;;;;;;5065753;28;20040;-59
2023/10/10 06:09:18;;;;;;;94.63;34.20;;;;;;;;;;5064665;28;20449;-58
2023/10/10 06:11:45;;;;;;;86.22;33.05;;;;;;;;;;5061917;28;20055;-58
2023/10/10 06:14:14;;;;;;;96.38;33.13;;;;;;;;;;5063968;28;20082;-58
2023/10/10 06:16:40;;;;;;;94.43;35.05;;;;;;;;;;5065337;28;20094;-58
2023/10/10 06:19:13;;;;;;;90.80;34.80;;;;;;;;;;5063013;28;20465;-58
2023/10/10 06:21:40;;;;;;;91.05;34.15;;;;;;;;;;5059308;28;20114;-58
2023/10/10 06:24:08;;;;;;;92.47;35.30;;;;;;;;;;5058997;28;20063;-58
2023/10/10 06:26:37;;;;;;;91.22;34.95;;;;;;;;;;5063720;28;20052;-58
2023/10/10 06:29:04;;;;;;;89.32;37.38;;;;;;;;;;5062606;28;20045;-58
2023/10/10 06:31:36;;;;;;;91.20;36.15;;;;;;;;;;5057981;28;20127;-58
2023/10/10 06:34:19;;;;;;;94.18;34.58;;;;;;;;;;5062656;28;20514;-58
2023/10/10 06:36:48;;;;;;;91.75;33.72;;;;;;;;;;5064184;28;20552;-58
2023/10/10 06:41:42;;;;;;;84.22;34.42;;;;;;;;;;5063213;28;20121;-58
2023/10/10 06:44:14;;;;;;;82.88;33.13;;;;;;;;;;5060542;28;20045;-58
2023/10/10 06:46:41;;;;;;;86.50;33.38;;;;;;;;;;5063017;28;20049;-58
2023/10/10 06:49:08;;;;;;;81.55;33.65;;;;;;;;;;5062000;28;20043;-58
2023/10/10 06:51:41;;;;;;;78.82;33.55;;;;;;;;;;5059995;28;20508;-58
2023/10/10 06:54:08;;;;;;;89.77;34.97;;;;;;;;;;5061110;28;20492;-58
2023/10/10 06:56:53;;;;;;;90.97;34.50;;;;;;;;;;5063855;28;20054;-58
2023/10/10 06:59:25;;;;;;;83.97;35.47;;;;;;;;;;5064581;28;20108;-58
2023/10/10 07:01:52;;;;;;;89.47;37.78;;;;;;;;;;5062722;28;20049;-58
2023/10/10 07:04:19;;;;;;;91.88;39.65;;;;;;;;;;5062045;28;20071;-58
2023/10/10 07:06:47;;;;;;;92.45;40.22;;;;;;;;;;5059800;28;20049;-58
2023/10/10 07:09:29;;;;;;;87.75;37.72;;;;;;;;;;5060947;28;20488;-58
2023/10/10 07:11:56;;;;;;;88.93;38.60;;;;;;;;;;5069114;28;20119;-59
2023/10/10 07:14:26;;;;;;;92.65;40.83;;;;;;;;;;5070317;28;20480;-59
2023/10/10 07:16:56;;;;;;;90.25;41.30;;;;;;;;;;5070903;28;20127;-59
2023/10/10 07:19:30;;;;;;;97.65;41.63;;;;;;;;;;5070095;28;20044;-59
2023/10/10 07:21:57;;;;;;;88.30;39.80;;;;;;;;;;5071347;28;20081;-59
2023/10/10 07:24:40;;;;;;;80.43;38.65;;;;;;;;;;5069431;28;20496;-59
2023/10/10 07:27:11;;;;;;;91.93;42.00;;;;;;;;;;5065718;28;20088;-59
2023/10/10 07:32:16;;;;;;;94.57;42.57;;;;;;;;;;5068264;28;20070;-59
2023/10/10 07:34:49;;;;;;;91.57;42.88;;;;;;;;;;5068931;28;20039;-59
2023/10/10 07:37:15;;;;;;;89.40;40.17;;;;;;;;;;5071096;28;20459;-59
2023/10/10 07:40:08;;;;;;;85.95;42.20;;;;;;;;;;5069159;28;20086;-59
2023/10/10 07:42:37;;;;;;;85.18;40.80;;;;;;;;;;5059564;28;20055;-59
2023/10/10 07:45:13;;;;;;;89.05;42.75;;;;;;;;;;5070453;28;20044;-59
2023/10/10 07:50:27;;;;;;;79.70;40.17;;;;;;;;;;5070494;28;20041;-59
2023/10/10 07:52:53;;;;;;;79.68;40.00;;;;;;;;;;5070023;28;20051;-59
2023/10/10 07:55:22;;;;;;;76.63;40.17;;;;;;;;;;5070578;28;20040;-59
2023/10/10 07:57:59;;;;;;;75.45;40.70;;;;;;;;;;5070577;28;20043;-59
2023/10/10 08:00:39;;;;;;;73.13;40.83;;;;;;;;;;5068305;28;20048;-59
2023/10/10 08:03:06;;;;;;;68.30;39.38;;;;;;;;;;5070540;28;20049;-59
2023/10/10 08:05:33;;;;;;;70.97;40.25;;;;;;;;;;5070882;28;20102;-59
2023/10/10 08:08:05;;;;;;;63.03;36.67;;;;;;;;;;5070318;28;20123;-59
2023/10/10 08:10:40;;;;;;;71.55;38.28;;;;;;;;;;5069204;28;20074;-59
2023/10/10 08:13:14;;;;;;;68.82;39.47;;;;;;;;;;5070664;28;20079;-59
2023/10/10 08:15:56;;;;;;;65.90;38.47;;;;;;;;;;5070128;28;20051;-59
2023/10/10 08:21:14;;;;;;;61.17;36.90;;;;;;;;;;5067953;28;20040;-59
2023/10/10 08:23:46;;;;;;;63.50;34.70;;;;;;;;;;5069997;28;20515;-59
2023/10/10 08:26:18;;;;;;;60.97;35.72;;;;;;;;;;5070601;28;20523;-59
2023/10/10 08:28:48;;;;;;;56.10;34.83;;;;;;;;;;5069793;28;20162;-59
2023/10/10 08:31:14;;;;;;;62.03;38.47;;;;;;;;;;5068804;28;20362;-59
2023/10/10 08:33:44;;;;;;;66.03;36.75;;;;;;;;;;5069463;28;20037;-59
2023/10/10 08:36:23;;;;;;;57.47;36.92;;;;;;;;;;5068048;28;20482;-59
2023/10/10 08:39:17;;;;;;;66.10;39.20;;;;;;;;;;5068387;28;20036;-59
2023/10/10 08:41:44;;;;;;;61.90;38.13;;;;;;;;;;5068485;28;20484;-59
2023/10/10 08:44:11;;;;;;;63.13;38.45;;;;;;;;;;5068095;28;20049;-59
2023/10/10 08:46:58;;;;;;;67.35;39.30;;;;;;;;;;5067108;28;20063;-59
2023/10/10 08:49:27;;;;;;;65.45;37.70;;;;;;;;;;5068063;28;20041;-60
2023/10/10 08:51:53;;;;;;;64.95;39.00;;;;;;;;;;5068820;28;20417;-59
2023/10/10 08:54:20;;;;;;;65.70;39.15;;;;;;;;;;5069776;28;20080;-59
2023/10/10 08:56:59;;;;;;;63.63;38.35;;;;;;;;;;5069829;28;20507;-59
2023/10/10 08:59:28;;;;;;;58.97;37.95;;;;;;;;;;5069769;28;20044;-59
2023/10/10 09:02:17;;;;;;;64.82;38.67;;;;;;;;;;5068965;28;20176;-59
2023/10/10 09:04:46;;;;;;;59.83;35.60;;;;;;;;;;5057439;28;20068;-59
2023/10/10 09:07:27;;;;;;;57.05;37.55;;;;;;;;;;5069626;28;20056;-60
2023/10/10 09:10:13;;;;;;;58.40;36.97;;;;;;;;;;5070318;28;20507;-59
2023/10/10 09:12:55;;;;;;;55.33;34.80;;;;;;;;;;5069523;28;20156;-60
2023/10/10 09:15:22;;;;;;;56.40;36.80;;;;;;;;;;5069392;28;20076;-59
2023/10/10 09:17:48;;;;;;;56.45;34.70;;;;;;;;;;5070118;28;20514;-59
2023/10/10 09:20:32;;;;;;;51.92;35.08;;;;;;;;;;5069430;28;20096;-59
2023/10/10 09:23:11;;;;;;;61.35;37.38;;;;;;;;;;5070242;28;20040;-59
2023/10/10 09:25:42;;;;;;;57.72;35.05;;;;;;;;;;5068406;28;20377;-59
2023/10/10 09:28:15;;;;;;;52.30;34.35;;;;;;;;;;5070106;28;20037;-60
2023/10/10 09:30:58;;;;;;;54.28;33.15;;;;;;;;;;5069119;28;20126;-60
2023/10/10 09:33:33;;;;;;;53.80;34.17;;;;;;;;;;5056562;28;20033;-59
2023/10/10 09:36:08;;;;;;;52.10;33.60;;;;;;;;;;5068315;28;20125;-59
2023/10/10 09:38:45;;;;;;;59.42;36.13;;;;;;;;;;5070033;28;20044;-59
2023/10/10 09:41:26;;;;;;;58.35;34.50;;;;;;;;;;5069516;28;20059;-59
2023/10/10 09:44:26;;;;;;;56.90;34.50;;;;;;;;;;5069991;28;20045;-59
2023/10/10 09:47:40;;;;;;;48.22;31.63;;;;;;;;;;5063446;28;20136;-59
2023/10/10 09:55:21;;;;;;;49.30;31.60;;;;;;;;;;5068966;28;20040;-59
2023/10/10 09:58:01;;;;;;;48.20;30.80;;;;;;;;;;5056897;28;20093;-59
2023/10/10 10:06:02;;;;;;;48.03;29.60;;;;;;;;;;5069695;28;19986;-60
2023/10/10 10:08:37;;;;;;;;;;;;;;;;;;5069906;28;20131;-60
2023/10/10 10:11:11;;;;;;;46.05;28.85;;;;;;;;;;5072601;28;19924;-60
2023/10/10 10:13:53;;;;;;;44.88;30.38;;;;;;;;;;5071698;28;20045;-60
2023/10/10 10:16:37;;;;;;;43.58;28.17;;;;;;;;;;5059548;28;20094;-60
2023/10/10 10:21:52;;;;;;;40.22;27.88;;;;;;;;;;5070996;28;20071;-59
2023/10/10 10:24:26;;;;;;;41.88;27.50;;;;;;;;;;5072764;28;20055;-60
2023/10/10 10:27:12;;;;;;;42.38;27.08;;;;;;;;;;5073249;28;20048;-60
2023/10/10 10:29:42;;;;;;;46.65;28.83;;;;;;;;;;5070936;28;20052;-59
2023/10/10 10:32:10;;;;;;;40.55;26.90;;;;;;;;;;5072960;28;20055;-60
2023/10/10 10:34:45;;;;;;;44.97;30.17;;;;;;;;;;5072650;28;20381;-59
2023/10/10 10:37:20;;;;;;;45.25;29.48;;;;;;;;;;5070134;28;20102;-59
2023/10/10 10:42:36;;;;;;;47.40;30.10;;;;;;;;;;5060762;28;20044;-60
2023/10/10 10:45:23;;;;;;;44.28;29.70;;;;;;;;;;5072037;28;20094;-59
2023/10/10 10:48:02;;;;;;;41.60;28.77;;;;;;;;;;5072523;28;20056;-60
2023/10/10 10:50:29;;;;;;;42.90;27.42;;;;;;;;;;5070696;28;20040;-59
2023/10/10 10:52:59;;;;;;;43.90;28.35;;;;;;;;;;5069362;28;20040;-59
2023/10/10 10:55:27;;;;;;;45.45;29.48;;;;;;;;;;5072429;28;20096;-59
2023/10/10 10:58:49;;;;;;;40.38;28.52;;;;;;;;;;5071876;28;20142;-59
2023/10/10 11:01:00;;;;;;;44.22;28.98;;;;;;;;;;5050804;28;20045;-59
2023/10/10 11:03:36;;;;;;;39.55;27.05;;;;;;;;;;5072230;28;20533;-59
2023/10/10 11:06:06;;;;;;;38.75;26.38;;;;;;;;;;5071589;28;20048;-60
2023/10/10 11:14:00;;;;;;;35.92;24.67;;;;;;;;;;5072078;28;20068;-60
2023/10/10 11:16:39;;;;;;;42.88;26.25;;;;;;;;;;5071325;28;20482;-59
2023/10/10 11:19:18;;;;;;;31.10;22.00;;;;;;;;;;5070760;28;20051;-59
2023/10/10 11:21:53;;;;;;;38.60;23.60;;;;;;;;;;5072121;28;20400;-60
2023/10/10 11:24:29;;;;;;;33.22;22.13;;;;;;;;;;5064684;28;20063;-60
2023/10/10 11:27:13;;;;;;;32.67;22.42;;;;;;;;;;5065675;28;20048;-60
2023/10/10 11:29:47;;;;;;;30.98;20.88;;;;;;;;;;5067042;28;20048;-59
2023/10/10 11:32:24;;;;;;;32.40;19.70;;;;;;;;;;5065980;28;20049;-59
2023/10/10 11:34:57;;;;;;;30.80;18.35;;;;;;;;;;5069969;28;20036;-59
2023/10/10 11:37:26;;;;;;;27.48;17.33;;;;;;;;;;5071990;28;20093;-60
2023/10/10 11:42:58;;;;;;;27.02;18.17;;;;;;;;;;5068151;28;20346;-60
2023/10/10 11:45:28;;;;;;;24.15;16.83;;;;;;;;;;5071355;28;20552;-59
2023/10/10 11:48:10;;;;;;;25.50;16.42;;;;;;;;;;5067987;28;20040;-60
2023/10/10 11:50:46;;;;;;;29.23;19.02;;;;;;;;;;5068988;28;20090;-60
2023/10/10 11:53:14;;;;;;;27.92;17.75;;;;;;;;;;5069140;28;20072;-60
2023/10/10 11:55:54;;;;;;;27.50;18.75;;;;;;;;;;5069178;28;20487;-60
2023/10/10 11:58:23;;;;;;;26.52;18.58;;;;;;;;;;5067951;28;20110;-60
2023/10/10 12:01:10;;;;;;;24.63;16.10;;;;;;;;;;5067554;28;20488;-60
2023/10/10 12:06:17;;;;;;;26.63;16.75;;;;;;;;;;5057185;28;20097;-59
2023/10/10 12:08:48;;;;;;;31.85;18.00;;;;;;;;;;5069551;28;20072;-60
2023/10/10 12:11:21;;;;;;;34.25;18.58;;;;;;;;;;5069822;28;20039;-59
2023/10/10 12:13:48;;;;;;;27.02;16.00;;;;;;;;;;5069414;28;20124;-60
2023/10/10 12:16:17;;;;;;;26.70;16.08;;;;;;;;;;5070402;28;20036;-60
2023/10/10 12:18:44;;;;;;;28.25;17.45;;;;;;;;;;5069647;28;20048;-60
2023/10/10 12:21:23;;;;;;;30.67;17.98;;;;;;;;;;5068305;28;20131;-60
2023/10/10 12:23:58;;;;;;;27.90;16.75;;;;;;;;;;5067462;28;20041;-59
2023/10/10 12:26:24;;;;;;;27.98;16.73;;;;;;;;;;5068597;28;20120;-60
2023/10/10 12:28:54;;;;;;;32.30;18.02;;;;;;;;;;5060391;28;20054;-59
2023/10/10 12:31:21;;;;;;;34.33;18.48;;;;;;;;;;5068164;28;20510;-60
2023/10/10 12:33:48;;;;;;;28.00;17.10;;;;;;;;;;5067268;28;20485;-59
2023/10/10 12:36:22;;;;;;;33.08;17.90;;;;;;;;;;5065817;28;20495;-59
2023/10/10 12:38:48;;;;;;;35.42;18.15;;;;;;;;;;5066219;28;20127;-59
2023/10/10 12:41:20;;;;;;;30.25;18.98;;;;;;;;;;5068652;28;20044;-59
2023/10/10 12:43:47;;;;;;;32.72;20.38;;;;;;;;;;5068681;28;20049;-59
2023/10/10 12:46:16;;;;;;;32.47;19.90;;;;;;;;;;5070071;28;20049;-59
2023/10/10 12:48:43;;;;;;;32.67;19.80;;;;;;;;;;5069690;28;20184;-59
2023/10/10 12:51:10;;;;;;;32.03;19.63;;;;;;;;;;5069352;28;20040;-59
2023/10/10 12:53:40;;;;;;;36.85;21.15;;;;;;;;;;5068829;28;20123;-59
2023/10/10 12:56:11;;;;;;;35.38;20.88;;;;;;;;;;5068166;28;20430;-59
2023/10/10 12:58:42;;;;;;;35.10;20.92;;;;;;;;;;5068989;28;20048;-60
2023/10/10 13:01:12;;;;;;;33.75;20.50;;;;;;;;;;5068647;28;20052;-60
2023/10/10 13:03:38;;;;;;;35.97;21.60;;;;;;;;;;5069607;28;20449;-59
2023/10/10 13:06:06;;;;;;;33.72;20.58;;;;;;;;;;5070410;28;20048;-59
2023/10/10 13:08:39;;;;;;;36.80;23.90;;;;;;;;;;5069827;28;20036;-59
2023/10/10 13:11:14;;;;;;;40.05;26.38;;;;;;;;;;5068535;28;20048;-59
2023/10/10 13:13:48;;;;;;;39.47;26.63;;;;;;;;;;5069433;28;20149;-59
2023/10/10 13:18:54;;;;;;;41.80;27.55;;;;;;;;;;5068580;28;20048;-59
2023/10/10 13:21:20;;;;;;;44.40;28.65;;;;;;;;;;5068761;28;20041;-59
2023/10/10 13:23:47;;;;;;;43.45;28.88;;;;;;;;;;5068254;28;20059;-60
2023/10/10 13:26:13;;;;;;;41.83;29.45;;;;;;;;;;5068700;28;20174;-59
2023/10/10 13:28:44;;;;;;;50.33;31.25;;;;;;;;;;5068155;28;20493;-60
2023/10/10 13:31:13;;;;;;;43.78;28.35;;;;;;;;;;5068446;28;20545;-59
2023/10/10 13:33:40;;;;;;;46.08;30.67;;;;;;;;;;5068433;28;20531;-59
2023/10/10 13:36:11;;;;;;;43.13;30.08;;;;;;;;;;5070007;28;20348;-59
2023/10/10 13:38:38;;;;;;;47.22;31.38;;;;;;;;;;5067010;28;20399;-59
2023/10/10 13:41:08;;;;;;;44.05;32.35;;;;;;;;;;5066103;28;20043;-59
2023/10/10 13:43:35;;;;;;;56.22;35.30;;;;;;;;;;5071550;28;20056;-59
2023/10/10 13:46:02;;;;;;;48.20;33.42;;;;;;;;;;5072190;28;20047;-59
2023/10/10 13:48:30;;;;;;;52.42;34.40;;;;;;;;;;5072306;28;20056;-59
2023/10/10 13:50:59;;;;;;;50.67;34.58;;;;;;;;;;5071569;28;20408;-60
2023/10/10 13:53:26;;;;;;;54.45;37.03;;;;;;;;;;5072457;28;20048;-59
2023/10/10 13:55:52;;;;;;;53.15;35.78;;;;;;;;;;5070693;28;20092;-59
2023/10/10 13:58:18;;;;;;;55.65;36.15;;;;;;;;;;5070698;28;20131;-59
2023/10/10 14:01:13;;;;;;;54.42;38.15;;;;;;;;;;5070125;28;20033;-59
2023/10/10 14:03:46;;;;;;;62.47;37.60;;;;;;;;;;5065111;28;20488;-59
2023/10/10 14:06:27;;;;;;;54.65;38.58;;;;;;;;;;5065111;28;20547;-60
2023/10/10 14:08:57;;;;;;;56.40;38.28;;;;;;;;;;5065468;28;20056;-60
2023/10/10 14:11:24;;;;;;;62.40;39.15;;;;;;;;;;5065844;28;20045;-59
2023/10/10 14:13:54;;;;;;;60.33;37.65;;;;;;;;;;5062018;28;20068;-60
2023/10/10 14:16:21;;;;;;;56.95;38.83;;;;;;;;;;5067816;28;20120;-60
2023/10/10 14:18:51;;;;;;;59.95;39.42;;;;;;;;;;5068162;28;20463;-59
2023/10/10 14:21:23;;;;;;;55.78;36.78;;;;;;;;;;5067098;28;20077;-59
2023/10/10 14:23:49;;;;;;;60.33;36.92;;;;;;;;;;5069203;28;20044;-59
2023/10/10 14:26:26;;;;;;;57.35;37.72;;;;;;;;;;5072129;28;20033;-59
2023/10/10 14:28:52;;;;;;;58.80;37.45;;;;;;;;;;5070674;28;20057;-59
2023/10/10 14:31:23;;;;;;;55.70;38.47;;;;;;;;;;5071697;28;20094;-59
2023/10/10 14:33:50;;;;;;;58.85;39.08;;;;;;;;;;5068198;28;20107;-59
2023/10/10 14:36:16;;;;;;;50.45;35.78;;;;;;;;;;5068031;28;20101;-59
2023/10/10 14:38:45;;;;;;;59.35;37.97;;;;;;;;;;5072168;28;20028;-59
2023/10/10 14:41:16;;;;;;;63.50;38.15;;;;;;;;;;5072693;28;20506;-59
2023/10/10 14:43:47;;;;;;;54.67;36.92;;;;;;;;;;5069083;28;20064;-59
2023/10/10 14:46:21;;;;;;;58.17;37.22;;;;;;;;;;5071760;28;20051;-59
2023/10/10 14:49:05;;;;;;;58.03;36.88;;;;;;;;;;5069505;28;20052;-59
2023/10/10 14:51:35;;;;;;;55.17;37.10;;;;;;;;;;5071935;28;20055;-59
2023/10/10 14:54:06;;;;;;;52.22;36.95;;;;;;;;;;5069186;28;20115;-59
2023/10/10 14:56:36;;;;;;;51.95;35.17;;;;;;;;;;5071275;28;20044;-59
2023/10/10 14:59:04;;;;;;;53.30;36.83;;;;;;;;;;5071406;28;20040;-59
2023/10/10 15:01:34;;;;;;;56.10;36.67;;;;;;;;;;5072297;28;20052;-59
2023/10/10 15:04:08;;;;;;;56.47;37.35;;;;;;;;;;5065875;28;20557;-59
2023/10/10 15:06:35;;;;;;;53.15;34.53;;;;;;;;;;5062640;28;20051;-59
2023/10/10 15:09:02;;;;;;;52.20;35.22;;;;;;;;;;5069179;28;20064;-59
2023/10/10 15:11:29;;;;;;;57.17;35.30;;;;;;;;;;5070319;28;20033;-60
2023/10/10 15:13:59;;;;;;;51.70;34.00;;;;;;;;;;5069890;28;20044;-60
2023/10/10 15:16:34;;;;;;;57.20;34.45;;;;;;;;;;5070260;28;20043;-60
2023/10/10 15:19:06;;;;;;;49.65;32.25;;;;;;;;;;5070596;28;20079;-60
2023/10/10 15:21:33;;;;;;;45.78;30.48;;;;;;;;;;5071201;28;20055;-60
2023/10/10 15:23:59;;;;;;;49.67;32.72;;;;;;;;;;5067786;28;20037;-59
2023/10/10 15:26:27;;;;;;;46.63;30.00;;;;;;;;;;5068487;28;20036;-59
2023/10/10 15:28:54;;;;;;;49.38;31.90;;;;;;;;;;5068674;28;20060;-59
2023/10/10 15:31:30;;;;;;;43.85;31.33;;;;;;;;;;5060302;28;20382;-59
2023/10/10 15:34:00;;;;;;;45.33;31.80;;;;;;;;;;5063662;28;20048;-59
2023/10/10 15:36:30;;;;;;;47.95;31.75;;;;;;;;;;5070617;28;20044;-60
2023/10/10 15:39:04;;;;;;;48.85;30.70;;;;;;;;;;5070513;28;20045;-59
2023/10/10 15:41:37;;;;;;;50.15;31.33;;;;;;;;;;5068780;28;20450;-59
2023/10/10 15:44:06;;;;;;;43.63;31.27;;;;;;;;;;5067373;28;20036;-59
2023/10/10 15:46:37;;;;;;;49.60;31.02;;;;;;;;;;5069104;28;20111;-59
2023/10/10 15:49:09;;;;;;;44.22;31.45;;;;;;;;;;5062886;28;20040;-71
2023/10/10 15:51:38;;;;;;;46.08;31.30;;;;;;;;;;5069870;28;20045;-59
2023/10/10 15:54:09;;;;;;;44.67;30.88;;;;;;;;;;5059270;28;20478;-59
2023/10/10 15:56:35;;;;;;;45.08;30.40;;;;;;;;;;5070985;28;20052;-59
2023/10/10 15:59:01;;;;;;;51.17;29.40;;;;;;;;;;5068521;28;20068;-59
2023/10/10 16:01:29;;;;;;;43.20;29.80;;;;;;;;;;5069100;28;20050;-59
2023/10/10 16:04:00;;;;;;;46.03;29.60;;;;;;;;;;5070000;28;20548;-59
2023/10/10 16:06:26;;;;;;;49.97;29.75;;;;;;;;;;5066989;28;20049;-59
2023/10/10 16:08:54;;;;;;;45.17;29.40;;;;;;;;;;5067209;28;20379;-59
2023/10/10 16:11:21;;;;;;;47.20;28.92;;;;;;;;;;5066646;28;20079;-59
2023/10/10 16:13:48;;;;;;;44.75;28.42;;;;;;;;;;5070236;28;20044;-59
2023/10/10 16:16:17;;;;;;;48.97;30.20;;;;;;;;;;5070308;28;20039;-59
2023/10/10 16:18:45;;;;;;;39.83;29.00;;;;;;;;;;5068987;28;20476;-59
2023/10/10 16:21:13;;;;;;;44.75;29.67;;;;;;;;;;5063367;28;20237;-59
2023/10/10 16:23:43;;;;;;;43.13;27.60;;;;;;;;;;5059870;28;20112;-59
2023/10/10 16:26:16;;;;;;;42.35;28.30;;;;;;;;;;5058461;28;20048;-59
2023/10/10 16:28:44;;;;;;;43.72;28.23;;;;;;;;;;5064286;28;20099;-59
2023/10/10 16:31:11;;;;;;;44.42;27.48;;;;;;;;;;5068718;28;20427;-59
2023/10/10 16:33:38;;;;;;;44.88;28.05;;;;;;;;;;5068551;28;20039;-60
2023/10/10 16:36:17;;;;;;;43.88;28.98;;;;;;;;;;5068927;28;20502;-60
2023/10/10 16:38:44;;;;;;;40.78;27.13;;;;;;;;;;5068749;28;20259;-59
2023/10/10 16:41:11;;;;;;;37.58;25.63;;;;;;;;;;5066521;28;20168;-59
2023/10/10 16:43:38;;;;;;;44.25;28.17;;;;;;;;;;5066308;28;20044;-59
2023/10/10 16:46:12;;;;;;;35.75;25.95;;;;;;;;;;5064399;28;20064;-59
2023/10/10 16:48:40;;;;;;;37.08;26.15;;;;;;;;;;5058314;28;20049;-59
2023/10/10 16:51:12;;;;;;;47.03;26.25;;;;;;;;;;5067339;28;20078;-59
2023/10/10 16:53:45;;;;;;;38.22;25.15;;;;;;;;;;5065949;28;20045;-58
2023/10/10 16:56:12;;;;;;;44.80;25.02;;;;;;;;;;5068602;28;20042;-59
2023/10/10 16:58:40;;;;;;;36.55;23.48;;;;;;;;;;5067171;28;20059;-59
2023/10/10 17:01:08;;;;;;;34.72;22.20;;;;;;;;;;5060226;28;20168;-58
2023/10/10 17:03:37;;;;;;;34.40;22.90;;;;;;;;;;5059949;28;20531;-59
2023/10/10 17:06:05;;;;;;;33.65;23.00;;;;;;;;;;5059935;28;20041;-59
2023/10/10 17:08:32;;;;;;;36.20;24.27;;;;;;;;;;5061519;28;20610;-59
2023/10/10 17:11:05;;;;;;;35.58;22.83;;;;;;;;;;5063365;28;20044;-59
2023/10/10 17:13:38;;;;;;;33.88;21.95;;;;;;;;;;5074569;28;20040;-59
2023/10/10 17:16:05;;;;;;;35.55;22.50;;;;;;;;;;5068081;28;20069;-58
2023/10/10 17:18:32;;;;;;;34.85;22.42;;;;;;;;;;5062442;28;20346;-59
2023/10/10 17:21:01;;;;;;;38.97;25.05;;;;;;;;;;5069073;28;20036;-59
2023/10/10 17:23:27;;;;;;;33.38;23.38;;;;;;;;;;5074419;28;20041;-58
2023/10/10 17:25:57;;;;;;;44.35;22.95;;;;;;;;;;5073513;28;20037;-59
2023/10/10 17:28:26;;;;;;;34.78;23.30;;;;;;;;;;5072181;28;20052;-59
2023/10/10 17:30:54;;;;;;;34.00;23.38;;;;;;;;;;5070290;28;20053;-59
2023/10/10 17:33:21;;;;;;;37.95;22.80;;;;;;;;;;5070907;28;20102;-59
2023/10/10 17:35:47;;;;;;;35.45;21.70;;;;;;;;;;5071813;28;20052;-59